Time;durP1;ratioP1;P1;durP2;ratioP2;P2;SDS_P1;SDS_P2;PMS_P1;PMS_P2;Temp;Humidity;BMP_temperature;BMP_pressure;BME280_temperature;BME280_humidity;BME280_pressure;Samples;Min_cycle;Max_cycle;Signal;HPM_P1;HPM_P2
2021/08/01 00:00:24;;;;;;;0.40;0.40;;;;;;;15.15;82.62;96328.53;29395;202;63005;-68
2021/08/01 00:00:55;;;;;;;0.47;0.47;;;;;;;15.16;81.84;96335.59;29394;260;64008;-68
2021/08/01 00:01:27;;;;;;;0.40;0.40;;;;;;;15.17;82.46;96329.00;29395;321;63004;-68
2021/08/01 00:02:01;;;;;;;0.40;0.40;;;;;;;15.17;81.42;96329.00;29395;208;63026;-68
2021/08/01 00:02:34;;;;;;;0.40;0.40;;;;;;;15.17;80.89;96329.00;29395;204;63008;-69
2021/08/01 00:03:05;;;;;;;0.70;0.70;;;;;;;15.18;80.47;96330.59;29395;204;63009;-66
2021/08/01 00:03:38;;;;;;;0.40;0.40;;;;;;;15.18;81.35;96329.78;29394;261;64004;-56
2021/08/01 00:04:09;;;;;;;0.40;0.40;;;;;;;15.16;80.96;96321.94;29395;221;63008;-69
2021/08/01 00:04:40;;;;;;;0.50;0.50;;;;;;;15.17;82.05;96329.00;29395;233;63005;-67
2021/08/01 00:05:12;;;;;;;0.50;0.50;;;;;;;15.16;82.71;96321.94;29395;272;63009;-56
2021/08/01 00:05:45;;;;;;;0.40;0.40;;;;;;;15.13;82.55;96322.59;29395;220;63005;-67
2021/08/01 00:06:17;;;;;;;0.50;0.50;;;;;;;15.12;82.52;96326.47;29395;287;63009;-69
2021/08/01 00:06:48;;;;;;;0.50;0.50;;;;;;;15.10;83.81;96320.53;29395;197;63005;-67
2021/08/01 00:07:19;;;;;;;0.50;0.50;;;;;;;15.08;84.19;96325.53;29395;197;63026;-54
2021/08/01 00:07:50;;;;;;;0.40;0.40;;;;;;;15.06;84.36;96319.59;29395;283;63005;-55
2021/08/01 00:08:23;;;;;;;0.50;0.50;;;;;;;15.03;85.08;96328.47;29395;229;63027;-66
2021/08/01 00:08:55;;;;;;;0.50;0.50;;;;;;;14.98;85.06;96315.81;29394;227;64004;-67
2021/08/01 00:09:26;;;;;;;0.40;0.40;;;;;;;14.97;85.23;96324.34;29394;196;64009;-65
2021/08/01 00:10:01;;;;;;;0.40;0.40;;;;;;;14.94;85.42;96319.53;29395;208;63004;-65
2021/08/01 00:10:32;;;;;;;0.50;0.50;;;;;;;14.91;83.64;96314.75;29395;224;63009;-53
2021/08/01 00:11:05;;;;;;;0.50;0.50;;;;;;;14.87;83.66;96319.31;29395;239;63004;-66
2021/08/01 00:11:36;;;;;;;0.50;0.50;;;;;;;14.86;83.31;96318.50;29395;212;63008;-66
2021/08/01 00:12:08;;;;;;;0.47;0.47;;;;;;;14.89;83.70;96317.03;29394;215;64005;-54
2021/08/01 00:12:40;;;;;;;0.50;0.50;;;;;;;14.88;84.20;96312.72;29395;199;63009;-55
2021/08/01 00:13:12;;;;;;;0.47;0.47;;;;;;;14.87;84.95;96313.84;29395;258;63005;-65
2021/08/01 00:13:44;;;;;;;0.50;0.50;;;;;;;14.85;85.10;96316.09;29394;259;64009;-66
2021/08/01 00:14:16;;;;;;;0.47;0.47;;;;;;;14.84;85.23;96314.50;29395;268;63005;-66
2021/08/01 00:14:47;;;;;;;0.50;0.50;;;;;;;14.84;85.35;96312.56;29395;244;63009;-67
2021/08/01 00:15:19;;;;;;;0.50;0.50;;;;;;;14.84;85.04;96311.78;29395;202;63005;-53
2021/08/01 00:15:50;;;;;;;0.50;0.50;;;;;;;14.85;85.26;96318.84;29395;220;63009;-53
2021/08/01 00:16:24;;;;;;;0.40;0.40;;;;;;;14.84;85.41;96317.22;29395;222;63004;-66
2021/08/01 00:17:00;;;;;;;0.50;0.50;;;;;;;14.84;85.72;96320.75;29394;234;64009;-65
2021/08/01 00:17:33;;;;;;;0.50;0.50;;;;;;;14.82;85.72;96317.56;29394;211;64004;-66
2021/08/01 00:18:04;;;;;;;0.50;0.50;;;;;;;14.81;85.24;96326.09;29395;219;63009;-66
2021/08/01 00:18:36;;;;;;;0.50;0.50;;;;;;;14.79;85.50;96323.69;29395;263;63004;-65
2021/08/01 00:19:07;;;;;;;0.50;0.50;;;;;;;14.79;85.83;96315.50;29395;220;63008;-66
2021/08/01 00:19:38;;;;;;;0.50;0.50;;;;;;;14.79;85.79;96317.44;29395;252;63005;-66
2021/08/01 00:20:10;;;;;;;0.43;0.43;;;;;;;14.79;85.38;96318.22;29395;219;63009;-65
2021/08/01 00:20:42;;;;;;;0.50;0.50;;;;;;;14.80;84.75;96324.50;29395;265;63005;-62
2021/08/01 00:21:13;;;;;;;0.50;0.50;;;;;;;14.80;85.01;96321.75;29394;272;64009;-53
2021/08/01 00:21:44;;;;;;;0.50;0.50;;;;;;;14.80;85.36;96319.84;29395;199;63005;-64
2021/08/01 00:22:17;;;;;;;0.50;0.50;;;;;;;14.80;85.98;96316.31;29394;204;64009;-65
2021/08/01 00:22:48;;;;;;;0.40;0.40;;;;;;;14.78;86.11;96310.38;29395;203;63005;-64
2021/08/01 00:23:20;;;;;;;0.50;0.50;;;;;;;14.78;86.32;96315.84;29395;264;63009;-65
2021/08/01 00:23:55;;;;;;;0.50;0.50;;;;;;;14.75;86.35;96318.09;29395;243;63004;-65
2021/08/01 00:24:26;;;;;;;0.50;0.50;;;;;;;14.73;86.50;96320.34;29395;265;63009;-53
2021/08/01 00:24:57;;;;;;;0.40;0.40;;;;;;;14.72;86.26;96312.50;29395;224;63004;-54
2021/08/01 00:25:28;;;;;;;0.50;0.50;;;;;;;14.72;86.10;96316.03;29395;198;63017;-65
2021/08/01 00:26:00;;;;;;;0.40;0.40;;;;;;;14.71;86.58;96311.69;29395;216;63004;-65
2021/08/01 00:26:31;;;;;;;0.40;0.40;;;;;;;14.70;87.02;96315.56;29394;258;64008;-54
2021/08/01 00:27:04;;;;;;;0.40;0.40;;;;;;;14.70;86.45;96306.56;29395;227;63005;-54
2021/08/01 00:27:35;;;;;;;0.50;0.50;;;;;;;14.69;86.18;96307.69;29395;265;63009;-63
2021/08/01 00:28:06;;;;;;;0.50;0.50;;;;;;;14.70;86.09;96310.09;29395;262;63016;-63
2021/08/01 00:28:37;;;;;;;0.50;0.50;;;;;;;14.68;85.94;96315.09;29395;222;63009;-53
2021/08/01 00:29:08;;;;;;;0.50;0.50;;;;;;;14.65;86.25;96307.56;29395;219;63005;-53
2021/08/01 00:29:40;;;;;;;0.40;0.40;;;;;;;14.66;85.74;96306.44;29395;228;63009;-54
2021/08/01 00:30:11;;;;;;;0.50;0.50;;;;;;;14.66;86.18;96309.16;29395;205;63005;-64
2021/08/01 00:30:43;;;;;;;0.40;0.40;;;;;;;14.66;86.67;96306.44;29394;198;64009;-65
2021/08/01 00:31:14;;;;;;;0.50;0.50;;;;;;;14.65;86.80;96306.75;29395;294;63004;-53
2021/08/01 00:31:46;;;;;;;0.50;0.50;;;;;;;14.62;86.28;96308.22;29394;266;64009;-53
2021/08/01 00:32:17;;;;;;;0.47;0.47;;;;;;;14.62;86.16;96301.97;29395;223;63004;-65
2021/08/01 00:32:48;;;;;;;0.47;0.47;;;;;;;14.61;86.32;96300.38;29395;249;63009;-54
2021/08/01 00:33:22;;;;;;;0.50;0.50;;;;;;;14.60;86.10;96301.50;29394;233;64004;-64
2021/08/01 00:33:53;;;;;;;0.50;0.50;;;;;;;14.57;85.83;96294.78;29395;257;63016;-66
2021/08/01 00:34:25;;;;;;;0.50;0.50;;;;;;;14.57;85.92;96293.97;29395;227;63004;-54
2021/08/01 00:34:56;;;;;;;0.50;0.50;;;;;;;14.57;86.20;96297.50;29395;214;63009;-55
2021/08/01 00:35:28;;;;;;;0.50;0.50;;;;;;;14.55;86.81;96291.59;29395;219;63005;-54
2021/08/01 00:35:59;;;;;;;0.50;0.50;;;;;;;14.52;87.05;96295.00;29394;233;64009;-53
2021/08/01 00:36:30;;;;;;;0.50;0.50;;;;;;;14.50;87.12;96294.53;29395;276;63005;-53
2021/08/01 00:37:02;;;;;;;0.50;0.50;;;;;;;14.49;87.05;96290.19;29395;197;63009;-64
2021/08/01 00:37:33;;;;;;;0.50;0.50;;;;;;;14.50;86.77;96293.72;29395;203;63005;-54
2021/08/01 00:38:07;;;;;;;0.40;0.40;;;;;;;14.51;87.14;96296.13;29395;241;63009;-65
2021/08/01 00:38:38;;;;;;;0.45;0.45;;;;;;;14.51;87.41;96293.41;29395;302;63004;-64
2021/08/01 00:39:11;;;;;;;0.50;0.50;;;;;;;14.53;86.72;96298.53;29394;242;64009;-65
2021/08/01 00:39:43;;;;;;;0.50;0.50;;;;;;;14.53;86.27;96296.59;29395;204;63004;-54
2021/08/01 00:40:17;;;;;;;0.40;0.40;;;;;;;14.54;86.75;96290.00;29395;218;63009;-63
2021/08/01 00:40:48;;;;;;;0.50;0.50;;;;;;;14.56;86.16;96293.19;29395;210;63004;-53
2021/08/01 00:41:20;;;;;;;0.40;0.40;;;;;;;14.58;86.28;96293.62;29395;203;63008;-65
2021/08/01 00:41:51;;;;;;;0.50;0.50;;;;;;;14.57;86.27;96293.97;29395;230;63004;-54
2021/08/01 00:42:23;;;;;;;0.50;0.50;;;;;;;14.57;86.31;96297.50;29395;202;63009;-65
2021/08/01 00:42:54;;;;;;;0.50;0.50;;;;;;;14.57;86.04;96294.78;29395;207;63005;-55
2021/08/01 00:43:26;;;;;;;0.50;0.50;;;;;;;14.60;85.92;96291.38;29395;229;63009;-53
2021/08/01 00:43:58;;;;;;;0.50;0.50;;;;;;;14.60;86.25;96294.09;29394;202;64005;-64
2021/08/01 00:44:29;;;;;;;0.50;0.50;;;;;;;14.59;86.57;96302.63;29395;211;63009;-54
2021/08/01 00:45:04;;;;;;;0.50;0.50;;;;;;;14.58;86.18;96295.56;29395;205;63008;-65
2021/08/01 00:45:35;;;;;;;0.50;0.50;;;;;;;14.60;86.86;96293.31;29395;233;63009;-65
2021/08/01 00:46:07;;;;;;;0.50;0.50;;;;;;;14.58;86.87;96290.09;29394;205;64004;-53
2021/08/01 00:46:44;;;;;;;0.50;0.50;;;;;;;14.59;87.08;96289.78;29395;292;63009;-55
2021/08/01 00:47:15;;;;;;;0.40;0.40;;;;;;;14.58;87.26;96290.91;29395;206;63004;-66
2021/08/01 00:47:47;;;;;;;0.50;0.50;;;;;;;14.59;87.26;96289.78;29395;197;63009;-65
2021/08/01 00:48:18;;;;;;;0.50;0.50;;;;;;;14.59;87.52;96292.50;29395;198;63004;-54
2021/08/01 00:48:49;;;;;;;0.50;0.50;;;;;;;14.59;87.35;96286.25;29395;197;63017;-65
2021/08/01 00:49:20;;;;;;;0.50;0.50;;;;;;;14.59;87.34;96292.50;29395;261;63011;-64
2021/08/01 00:49:52;;;;;;;0.45;0.45;;;;;;;14.59;87.18;96292.50;29394;212;64009;-53
2021/08/01 00:50:25;;;;;;;0.50;0.50;;;;;;;14.59;86.50;96289.78;29395;217;63005;-63
2021/08/01 00:50:57;;;;;;;0.50;0.50;;;;;;;14.59;86.42;96287.06;29395;232;63027;-65
2021/08/01 00:51:30;;;;;;;0.40;0.40;;;;;;;14.59;86.37;96284.31;29394;241;64005;-65
2021/08/01 00:52:05;;;;;;;0.40;0.40;;;;;;;14.58;86.63;96285.44;29395;227;63009;-54
2021/08/01 00:52:37;;;;;;;0.50;0.50;;;;;;;14.58;86.97;96287.38;29394;259;64005;-64
2021/08/01 00:53:08;;;;;;;0.45;0.45;;;;;;;14.57;87.21;96283.06;29395;198;63027;-63
2021/08/01 00:53:41;;;;;;;0.40;0.40;;;;;;;14.55;87.15;96286.16;29395;220;63018;-64
2021/08/01 00:54:15;;;;;;;0.50;0.50;;;;;;;14.54;87.10;96284.53;29395;218;63009;-54
2021/08/01 00:54:47;;;;;;;0.50;0.50;;;;;;;14.54;87.42;96284.53;29395;231;63004;-64
2021/08/01 00:55:18;;;;;;;0.40;0.40;;;;;;;14.54;87.39;96294.66;29395;243;63009;-54
2021/08/01 00:55:49;;;;;;;0.62;0.62;;;;;;;14.52;87.56;96275.88;29395;202;63004;-65
2021/08/01 00:56:21;;;;;;;0.40;0.40;;;;;;;14.52;87.47;96281.34;29395;210;63009;-54
2021/08/01 00:56:52;;;;;;;0.40;0.40;;;;;;;14.52;87.13;96278.62;29395;209;63005;-63
2021/08/01 00:57:23;;;;;;;0.40;0.40;;;;;;;14.54;86.77;96281.81;29395;224;63009;-65
2021/08/01 00:57:54;;;;;;;0.40;0.40;;;;;;;14.55;87.08;96280.69;29394;214;64005;-54
2021/08/01 00:58:25;;;;;;;0.40;0.40;;;;;;;14.56;87.42;96287.72;29395;202;63022;-64
2021/08/01 00:58:57;;;;;;;0.40;0.40;;;;;;;14.56;87.75;96286.91;29395;228;63005;-53
2021/08/01 00:59:35;;;;;;;0.50;0.50;;;;;;;14.55;87.71;96288.87;29395;203;63009;-53
2021/08/01 01:00:24;;;;;;;0.40;0.40;;;;;;;14.55;87.87;96285.34;29395;210;63005;-65
2021/08/01 01:01:10;;;;;;;0.50;0.50;;;;;;;14.55;87.79;96293.53;29395;198;63009;-63
2021/08/01 01:01:54;;;;;;;0.50;0.50;;;;;;;14.56;87.62;96295.91;29394;197;64004;-65
2021/08/01 01:02:35;;;;;;;0.50;0.50;;;;;;;14.56;87.59;96293.19;29395;197;63009;-64
2021/08/01 01:03:26;;;;;;;0.43;0.43;;;;;;;14.56;87.52;96284.19;29395;197;63015;-63
2021/08/01 01:04:34;;;;;;;0.50;0.50;;;;;;;14.59;87.67;96295.25;29417;197;63009;-64
2021/08/01 01:05:27;;;;;;;0.50;0.50;;;;;;;14.60;87.91;96288.66;29395;211;63001;-65
2021/08/01 01:06:06;;;;;;;0.47;0.47;;;;;;;14.62;88.38;96291.84;29395;294;63005;-55
2021/08/01 01:07:09;;;;;;;0.50;0.50;;;;;;;14.62;88.30;96297.31;29395;206;63000;-55
2021/08/01 01:07:50;;;;;;;;;;;;;;;14.61;87.91;96287.50;29996;983;6009;-54
2021/08/01 01:08:43;;;;;;;0.50;0.50;;;;;;;14.60;88.49;96294.09;29422;363;63009;-56
2021/08/01 01:09:36;;;;;;;0.50;0.50;;;;;;;14.59;88.36;96287.06;29395;252;63004;-65
2021/08/01 01:10:18;;;;;;;0.50;0.50;;;;;;;14.60;88.50;96288.66;29395;257;63009;-64
2021/08/01 01:10:55;;;;;;;0.40;0.40;;;;;;;14.60;88.39;96288.66;29395;235;63004;-64
2021/08/01 01:11:35;;;;;;;0.50;0.50;;;;;;;14.60;88.19;96294.09;29395;222;63009;-53
2021/08/01 01:12:15;;;;;;;0.50;0.50;;;;;;;14.60;87.97;96299.56;29438;248;64005;-64
2021/08/01 01:12:53;;;;;;;0.50;0.50;;;;;;;14.62;87.79;96291.03;29439;212;63021;-64
2021/08/01 01:13:28;;;;;;;0.45;0.45;;;;;;;14.61;87.93;96284.78;29395;198;63005;-65
2021/08/01 01:14:01;;;;;;;0.50;0.50;;;;;;;14.61;87.60;96292.97;29395;267;63009;-64
2021/08/01 01:14:37;;;;;;;0.50;0.50;;;;;;;14.63;87.67;96289.91;29395;240;63005;-65
2021/08/01 01:15:14;;;;;;;0.50;0.50;;;;;;;14.61;87.54;96290.25;29395;235;63009;-62
2021/08/01 01:15:48;;;;;;;0.50;0.50;;;;;;;14.60;87.82;96288.66;29395;203;63004;-64
2021/08/01 01:16:19;;;;;;;0.50;0.50;;;;;;;14.60;87.72;96294.09;29394;249;64009;-63
2021/08/01 01:16:55;;;;;;;0.50;0.50;;;;;;;14.61;87.79;96290.25;29395;235;63009;-65
2021/08/01 01:17:30;;;;;;;0.50;0.50;;;;;;;14.61;87.85;96292.19;29395;328;63009;-65
2021/08/01 01:18:03;;;;;;;0.50;0.50;;;;;;;14.60;87.64;96290.56;29395;237;63004;-62
2021/08/01 01:18:48;;;;;;;0.50;0.50;;;;;;;14.61;87.83;96290.25;29395;208;63008;-53
2021/08/01 01:19:40;;;;;;;0.47;0.47;;;;;;;14.61;88.02;96290.25;29394;198;64005;-54
2021/08/01 01:20:49;;;;;;;0.50;0.50;;;;;;;14.63;87.90;96295.38;29395;273;63009;-54
2021/08/01 01:21:52;;;;;;;0.50;0.50;;;;;;;14.60;87.45;96291.38;29395;196;63005;-62
2021/08/01 01:22:40;;;;;;;0.40;0.40;;;;;;;14.61;87.51;96284.00;29395;220;63009;-64
2021/08/01 01:23:42;;;;;;;0.50;0.50;;;;;;;14.61;87.50;96290.25;29394;205;64004;-64
2021/08/01 01:24:26;;;;;;;0.40;0.40;;;;;;;14.60;87.95;96288.66;29395;218;63004;-62
2021/08/01 01:25:04;;;;;;;0.40;0.40;;;;;;;14.59;87.89;96289.78;29395;239;63009;-64
2021/08/01 01:25:57;;;;;;;0.50;0.50;;;;;;;14.57;87.86;96294.78;29395;202;63004;-62
2021/08/01 01:26:37;;;;;;;0.40;0.40;;;;;;;14.56;87.76;96293.19;29395;198;63008;-64
2021/08/01 01:27:13;;;;;;;;;;;;;;;14.58;87.48;96296.37;29996;982;6000;-54
2021/08/01 01:27:50;;;;;;;0.43;0.43;;;;;;;14.58;87.46;96288.19;29399;203;64005;-64
2021/08/01 01:28:42;;;;;;;0.50;0.50;;;;;;;14.58;87.25;96292.84;29395;228;63009;-64
2021/08/01 01:29:46;;;;;;;0.50;0.50;;;;;;;14.58;87.30;96288.19;29417;240;63005;-54
2021/08/01 01:30:19;;;;;;;0.50;0.50;;;;;;;14.60;86.89;96287.84;29395;236;63009;-65
2021/08/01 01:31:36;;;;;;;0.50;0.50;;;;;;;14.59;88.06;96297.16;29395;243;63004;-65
2021/08/01 01:32:22;;;;;;;0.50;0.50;;;;;;;14.57;88.04;96294.78;29395;229;63016;-64
2021/08/01 01:33:06;;;;;;;0.50;0.50;;;;;;;14.55;88.08;96297.06;29394;221;64004;-55
2021/08/01 01:33:49;;;;;;;0.50;0.50;;;;;;;14.56;88.21;96295.91;29395;205;63008;-62
2021/08/01 01:34:29;;;;;;;0.50;0.50;;;;;;;14.56;88.22;96295.09;29395;232;63005;-54
2021/08/01 01:35:09;;;;;;;0.50;0.50;;;;;;;14.55;88.54;96297.06;29439;281;63017;-54
2021/08/01 01:35:51;;;;;;;0.50;0.50;;;;;;;14.54;88.67;96283.75;29373;228;63005;-54
2021/08/01 01:36:28;;;;;;;0.50;0.50;;;;;;;14.54;88.70;96289.22;29395;222;63009;-64
2021/08/01 01:37:03;;;;;;;0.50;0.50;;;;;;;14.53;88.81;96293.88;29394;243;64005;-53
2021/08/01 01:37:34;;;;;;;0.50;0.50;;;;;;;14.53;89.32;96288.41;29395;202;63009;-54
2021/08/01 01:38:07;;;;;;;0.50;0.50;;;;;;;14.53;89.23;96288.41;29395;202;63005;-55
2021/08/01 01:38:39;;;;;;;0.50;0.50;;;;;;;14.54;89.11;96289.22;29395;218;63013;-53
2021/08/01 01:39:15;;;;;;;0.45;0.45;;;;;;;14.54;89.38;96294.66;29395;204;63010;-54
2021/08/01 01:39:48;;;;;;;0.50;0.50;;;;;;;14.54;89.27;96292.72;29395;233;63009;-53
2021/08/01 01:40:21;;;;;;;0.50;0.50;;;;;;;14.54;89.46;96286.47;29395;226;63004;-64
2021/08/01 01:40:55;;;;;;;0.50;0.50;;;;;;;14.54;88.97;96290.00;29395;228;63008;-64
2021/08/01 01:41:26;;;;;;;0.43;0.43;;;;;;;14.55;88.64;96283.41;29394;214;64004;-54
2021/08/01 01:41:59;;;;;;;0.50;0.50;;;;;;;14.57;88.95;96285.78;29395;199;63009;-63
2021/08/01 01:42:32;;;;;;;0.45;0.45;;;;;;;14.56;89.12;96284.19;29395;251;63005;-54
2021/08/01 01:43:06;;;;;;;0.45;0.45;;;;;;;14.56;88.84;96286.91;29395;203;63009;-63
2021/08/01 01:43:38;;;;;;;0.45;0.45;;;;;;;14.57;89.02;96293.97;29395;224;63009;-53
2021/08/01 01:44:10;;;;;;;0.40;0.40;;;;;;;14.56;88.99;96284.97;29395;215;63009;-64
2021/08/01 01:44:44;;;;;;;0.40;0.40;;;;;;;14.55;89.33;96285.34;29395;198;63010;-62
2021/08/01 01:45:18;;;;;;;0.40;0.40;;;;;;;14.54;89.16;96292.72;29394;250;64009;-63
2021/08/01 01:45:51;;;;;;;0.45;0.45;;;;;;;14.55;88.93;96286.16;29395;202;63011;-53
2021/08/01 01:46:25;;;;;;;0.50;0.50;;;;;;;14.56;89.01;96292.38;29394;211;64009;-55
2021/08/01 01:46:57;;;;;;;0.50;0.50;;;;;;;14.57;88.89;96286.59;29395;226;63004;-54
2021/08/01 01:47:30;;;;;;;0.40;0.40;;;;;;;14.56;88.90;96282.25;29395;202;63008;-63
2021/08/01 01:48:02;;;;;;;0.40;0.40;;;;;;;14.56;88.71;96287.72;29395;240;63004;-54
2021/08/01 01:48:34;;;;;;;0.40;0.40;;;;;;;14.57;88.67;96283.84;29395;205;63008;-64
2021/08/01 01:49:08;;;;;;;0.40;0.40;;;;;;;14.59;88.64;96287.06;29395;199;63004;-64
2021/08/01 01:49:40;;;;;;;0.40;0.40;;;;;;;14.59;88.21;96287.06;29395;353;63009;-53
2021/08/01 01:50:12;;;;;;;0.50;0.50;;;;;;;14.58;88.40;96290.09;29395;198;63005;-53
2021/08/01 01:50:45;;;;;;;0.50;0.50;;;;;;;14.58;88.65;96290.91;29395;205;63009;-62
2021/08/01 01:51:18;;;;;;;0.40;0.40;;;;;;;14.58;89.17;96287.38;29395;247;63005;-54
2021/08/01 01:51:50;;;;;;;0.40;0.40;;;;;;;14.56;89.11;96287.72;29394;314;64009;-62
2021/08/01 01:52:23;;;;;;;0.40;0.40;;;;;;;14.57;89.07;96277.59;29395;291;63005;-62
2021/08/01 01:52:56;;;;;;;0.50;0.50;;;;;;;14.57;89.12;96286.59;29395;244;63009;-65
2021/08/01 01:53:32;;;;;;;0.50;0.50;;;;;;;14.55;89.63;96285.34;29395;218;63004;-53
2021/08/01 01:54:06;;;;;;;0.40;0.40;;;;;;;14.53;89.47;96282.94;29395;207;63009;-63
2021/08/01 01:54:37;;;;;;;0.50;0.50;;;;;;;14.53;89.69;96285.69;29395;273;63004;-54
2021/08/01 01:55:10;;;;;;;0.40;0.40;;;;;;;14.54;89.28;96286.47;29395;264;63008;-53
2021/08/01 01:55:42;;;;;;;0.50;0.50;;;;;;;14.52;89.12;96275.88;29395;208;63004;-54
2021/08/01 01:56:15;;;;;;;0.40;0.40;;;;;;;14.53;89.04;96285.69;29395;227;63009;-53
2021/08/01 01:56:46;;;;;;;0.40;0.40;;;;;;;14.53;89.13;96282.16;29394;246;64005;-55
2021/08/01 01:57:18;;;;;;;0.40;0.40;;;;;;;14.53;89.03;96279.41;29395;233;63009;-63
2021/08/01 01:57:50;;;;;;;0.40;0.40;;;;;;;14.53;88.76;96276.69;29394;216;64005;-52
2021/08/01 01:58:22;;;;;;;0.40;0.40;;;;;;;14.53;88.92;96285.69;29395;198;63009;-54
2021/08/01 01:58:54;;;;;;;0.40;0.40;;;;;;;14.53;88.71;96282.94;29395;213;63005;-53
2021/08/01 01:59:25;;;;;;;0.40;0.40;;;;;;;14.53;88.78;96282.94;29395;225;63009;-64
2021/08/01 01:59:58;;;;;;;0.40;0.40;;;;;;;14.51;88.98;96274.28;29395;216;63005;-53
2021/08/01 02:00:30;;;;;;;0.40;0.40;;;;;;;14.51;89.14;96277.03;29395;273;63009;-63
2021/08/01 02:01:01;;;;;;;0.40;0.40;;;;;;;14.52;89.21;96275.88;29395;221;63004;-54
2021/08/01 02:01:33;;;;;;;0.45;0.45;;;;;;;14.55;88.93;96275.22;29394;269;64002;-53
2021/08/01 02:02:10;;;;;;;0.40;0.40;;;;;;;14.60;88.11;96280.47;29395;211;63004;-53
2021/08/01 02:02:43;;;;;;;0.50;0.50;;;;;;;14.59;88.29;96276.13;29395;255;63008;-65
2021/08/01 02:03:14;;;;;;;0.40;0.40;;;;;;;14.57;88.31;96277.59;29395;215;63004;-63
2021/08/01 02:03:47;;;;;;;0.40;0.40;;;;;;;14.56;88.12;96274.06;29395;227;63009;-62
2021/08/01 02:04:18;;;;;;;0.40;0.40;;;;;;;14.55;88.25;96280.69;29395;204;63005;-64
2021/08/01 02:04:53;;;;;;;0.60;0.60;;;;;;;14.56;88.01;96279.53;29395;203;63009;-54
2021/08/01 02:05:24;;;;;;;0.43;0.43;;;;;;;14.59;87.76;96278.06;29395;219;63005;-62
2021/08/01 02:05:59;;;;;;;0.50;0.50;;;;;;;14.58;87.35;96274.53;29394;224;64009;-53
2021/08/01 02:06:31;;;;;;;0.40;0.40;;;;;;;14.56;87.64;96276.78;29395;229;63010;-54
2021/08/01 02:07:04;;;;;;;0.50;0.50;;;;;;;14.54;87.68;96279.09;29395;212;63009;-64
2021/08/01 02:07:38;;;;;;;0.40;0.40;;;;;;;14.52;87.95;96275.88;29395;244;63000;-64
2021/08/01 02:08:09;;;;;;;0.40;0.40;;;;;;;14.50;87.74;96275.41;29395;227;63009;-64
2021/08/01 02:09:07;;;;;;;0.50;0.50;;;;;;;14.49;88.04;96279.28;29395;208;63004;-63
2021/08/01 02:09:57;;;;;;;0.50;0.50;;;;;;;14.47;88.54;96281.53;29394;242;64009;-64
2021/08/01 02:10:52;;;;;;;0.50;0.50;;;;;;;14.44;89.09;96286.84;29394;214;64004;-54
2021/08/01 02:11:29;;;;;;;0.50;0.50;;;;;;;14.42;88.77;96284.47;29395;284;63009;-54
2021/08/01 02:12:31;;;;;;;0.50;0.50;;;;;;;14.41;89.09;96280.13;29395;200;63005;-64
2021/08/01 02:13:05;;;;;;;0.50;0.50;;;;;;;14.38;89.37;96278.84;29417;256;63009;-64
2021/08/01 02:13:47;;;;;;;0.50;0.50;;;;;;;14.36;89.29;96283.81;29394;197;64005;-62
2021/08/01 02:14:25;;;;;;;0.50;0.50;;;;;;;14.37;89.22;96279.16;29395;262;63009;-63
2021/08/01 02:15:11;;;;;;;0.50;0.50;;;;;;;14.36;89.49;96277.56;29395;222;63005;-61
2021/08/01 02:15:47;;;;;;;0.43;0.43;;;;;;;14.35;89.40;96281.44;29394;216;64009;-53
2021/08/01 02:16:20;;;;;;;0.50;0.50;;;;;;;14.34;89.68;96282.56;29395;373;63004;-63
2021/08/01 02:16:58;;;;;;;0.50;0.50;;;;;;;14.34;89.74;96280.63;29395;219;63009;-54
2021/08/01 02:17:49;;;;;;;0.50;0.50;;;;;;;14.34;89.57;96279.81;29395;255;63004;-54
2021/08/01 02:18:54;;;;;;;0.40;0.40;;;;;;;14.34;89.54;96271.63;29417;196;63008;-62
2021/08/01 02:19:28;;;;;;;0.40;0.40;;;;;;;14.34;89.86;96282.56;29394;236;64005;-64
2021/08/01 02:20:02;;;;;;;0.40;0.40;;;;;;;14.32;90.18;96282.88;29395;212;63009;-54
2021/08/01 02:20:48;;;;;;;0.47;0.47;;;;;;;14.31;89.86;96275.81;29395;236;63005;-55
2021/08/01 02:21:21;;;;;;;0.40;0.40;;;;;;;14.31;89.97;96275.81;29395;220;63009;-62
2021/08/01 02:21:53;;;;;;;0.50;0.50;;;;;;;14.30;90.24;96278.88;29395;219;63005;-53
2021/08/01 02:22:25;;;;;;;0.50;0.50;;;;;;;14.28;90.08;96281.16;29394;243;64009;-53
2021/08/01 02:22:59;;;;;;;0.55;0.55;;;;;;;14.27;90.48;96276.81;29395;207;63015;-54
2021/08/01 02:23:40;;;;;;;0.40;0.40;;;;;;;14.27;90.47;96274.09;29394;196;64009;-54
2021/08/01 02:24:13;;;;;;;0.50;0.50;;;;;;;14.26;90.74;96278.75;29395;222;63004;-64
2021/08/01 02:24:48;;;;;;;0.50;0.50;;;;;;;14.27;90.54;96274.09;29395;246;63009;-65
2021/08/01 02:25:21;;;;;;;0.40;0.40;;;;;;;14.26;90.31;96273.28;29395;225;63004;-64
2021/08/01 02:25:54;;;;;;;0.50;0.50;;;;;;;14.26;90.27;96272.50;29395;269;63008;-63
2021/08/01 02:26:26;;;;;;;0.50;0.50;;;;;;;14.25;90.30;96276.34;29395;223;63005;-54
2021/08/01 02:27:02;;;;;;;0.50;0.50;;;;;;;14.23;90.17;96276.69;29395;214;63009;-63
2021/08/01 02:27:34;;;;;;;0.50;0.50;;;;;;;14.25;89.98;96279.06;29394;208;64005;-63
2021/08/01 02:28:07;;;;;;;0.40;0.40;;;;;;;14.25;89.87;96270.88;29395;202;63009;-63
2021/08/01 02:28:40;;;;;;;0.50;0.50;;;;;;;14.26;90.01;96283.41;29395;246;63005;-64
2021/08/01 02:29:16;;;;;;;0.50;0.50;;;;;;;14.26;89.95;96273.28;29395;268;63009;-64
2021/08/01 02:29:49;;;;;;;0.50;0.50;;;;;;;14.26;90.05;96269.75;29394;219;64005;-64
2021/08/01 02:30:21;;;;;;;0.50;0.50;;;;;;;14.24;90.23;96274.75;29395;242;63016;-65
2021/08/01 02:30:56;;;;;;;0.50;0.50;;;;;;;14.22;90.60;96271.53;29395;220;63004;-64
2021/08/01 02:31:28;;;;;;;0.50;0.50;;;;;;;14.19;90.71;96273.03;29395;218;63009;-64
2021/08/01 02:32:01;;;;;;;0.50;0.50;;;;;;;14.19;90.75;96270.31;29395;213;63004;-65
2021/08/01 02:32:33;;;;;;;0.50;0.50;;;;;;;14.16;90.45;96273.69;29394;218;64009;-64
2021/08/01 02:33:06;;;;;;;0.50;0.50;;;;;;;14.15;90.51;96263.12;29394;206;63996;-62
2021/08/01 02:33:38;;;;;;;0.50;0.50;;;;;;;14.16;90.38;96267.44;29395;232;63009;-65
2021/08/01 02:34:10;;;;;;;0.45;0.45;;;;;;;14.17;90.52;96267.13;29395;197;63005;-64
2021/08/01 02:34:41;;;;;;;0.98;0.98;;;;;;;14.19;90.44;96272.25;29395;219;63009;-65
2021/08/01 02:35:13;;;;;;;0.50;0.50;;;;;;;14.19;90.29;96264.06;29395;241;63005;-64
2021/08/01 02:35:46;;;;;;;0.50;0.50;;;;;;;14.21;90.29;96270.75;29395;213;63009;-63
2021/08/01 02:36:20;;;;;;;0.50;0.50;;;;;;;14.21;90.62;96264.50;29394;198;64005;-55
2021/08/01 02:36:53;;;;;;;0.40;0.40;;;;;;;14.23;90.90;96262.22;29395;215;63009;-65
2021/08/01 02:37:27;;;;;;;0.50;0.50;;;;;;;14.23;90.85;96262.22;29395;203;63005;-65
2021/08/01 02:38:00;;;;;;;0.50;0.50;;;;;;;14.23;90.80;96267.69;29394;252;64009;-64
2021/08/01 02:38:33;;;;;;;0.43;0.43;;;;;;;14.24;90.55;96258.37;29395;221;63004;-65
2021/08/01 02:39:05;;;;;;;0.50;0.50;;;;;;;14.24;90.69;96269.28;29395;264;63009;-65
2021/08/01 02:39:36;;;;;;;0.40;0.40;;;;;;;14.24;90.65;96266.56;29395;222;63004;-65
2021/08/01 02:40:09;;;;;;;0.50;0.50;;;;;;;14.24;90.87;96272.03;29395;261;63009;-64
2021/08/01 02:40:42;;;;;;;0.40;0.40;;;;;;;14.23;91.14;96262.22;29395;203;63004;-65
2021/08/01 02:41:41;;;;;;;0.40;0.40;;;;;;;14.22;91.23;96266.09;29395;214;63009;-65
2021/08/01 02:42:15;;;;;;;0.40;0.40;;;;;;;14.23;91.25;96259.50;29395;245;63005;-65
2021/08/01 02:42:48;;;;;;;0.40;0.40;;;;;;;14.22;91.11;96261.44;29395;240;63009;-64
2021/08/01 02:43:21;;;;;;;0.40;0.40;;;;;;;14.22;91.24;96257.91;29394;204;64005;-65
2021/08/01 02:43:53;;;;;;;0.60;0.60;;;;;;;14.21;90.94;96259.03;29395;199;63009;-64
2021/08/01 02:44:28;;;;;;;0.45;0.45;;;;;;;14.23;90.90;96262.22;29395;241;63005;-64
2021/08/01 02:45:01;;;;;;;0.50;0.50;;;;;;;14.23;90.94;96268.50;29395;274;63009;-66
2021/08/01 02:45:34;;;;;;;0.40;0.40;;;;;;;14.25;90.75;96271.69;29395;214;63004;-65
2021/08/01 02:46:08;;;;;;;0.50;0.50;;;;;;;14.25;91.08;96268.16;29395;196;63009;-65
2021/08/01 02:46:42;;;;;;;0.50;0.50;;;;;;;14.26;91.03;96267.03;29395;324;63004;-65
2021/08/01 02:47:18;;;;;;;0.50;0.50;;;;;;;14.26;91.26;96269.75;29395;291;63009;-66
2021/08/01 02:47:51;;;;;;;0.40;0.40;;;;;;;14.26;91.16;96272.50;29395;254;63004;-65
2021/08/01 02:48:25;;;;;;;0.40;0.40;;;;;;;14.25;90.92;96270.88;29394;196;64008;-66
2021/08/01 02:48:59;;;;;;;0.40;0.40;;;;;;;14.25;90.75;96276.34;29395;272;63005;-66